sensor_id;sensor_type;location;lat;lon;timestamp;temperature;humidity
4643;DHT22;2334;48.710;9.622;2023-02-21T00:00:11;2.40;99.90
4643;DHT22;2334;48.710;9.622;2023-02-21T00:02:55;2.40;99.90
4643;DHT22;2334;48.710;9.622;2023-02-21T00:05:39;2.40;99.90
4643;DHT22;2334;48.710;9.622;2023-02-21T00:08:25;2.30;99.90
4643;DHT22;2334;48.710;9.622;2023-02-21T00:11:09;2.20;99.90
4643;DHT22;2334;48.710;9.622;2023-02-21T00:13:53;2.20;99.90
4643;DHT22;2334;48.710;9.622;2023-02-21T00:16:37;2.10;99.90
4643;DHT22;2334;48.710;9.622;2023-02-21T00:19:21;2.10;99.90
4643;DHT22;2334;48.710;9.622;2023-02-21T00:22:06;2.10;99.90
4643;DHT22;2334;48.710;9.622;2023-02-21T00:24:51;2.10;99.90
4643;DHT22;2334;48.710;9.622;2023-02-21T00:27:35;2.10;99.90
4643;DHT22;2334;48.710;9.622;2023-02-21T00:30:19;2.10;99.90
4643;DHT22;2334;48.710;9.622;2023-02-21T00:33:04;2.00;99.90
4643;DHT22;2334;48.710;9.622;2023-02-21T00:35:48;2.10;99.90
4643;DHT22;2334;48.710;9.622;2023-02-21T00:38:32;2.00;99.90
4643;DHT22;2334;48.710;9.622;2023-02-21T00:41:17;2.00;99.90
4643;DHT22;2334;48.710;9.622;2023-02-21T00:44:02;1.90;99.90
4643;DHT22;2334;48.710;9.622;2023-02-21T00:46:46;1.90;99.90
4643;DHT22;2334;48.710;9.622;2023-02-21T00:49:30;1.90;99.90
4643;DHT22;2334;48.710;9.622;2023-02-21T00:52:14;1.90;99.90
4643;DHT22;2334;48.710;9.622;2023-02-21T00:54:59;1.90;99.90
4643;DHT22;2334;48.710;9.622;2023-02-21T00:57:44;1.90;99.90
4643;DHT22;2334;48.710;9.622;2023-02-21T01:00:29;1.80;99.90
4643;DHT22;2334;48.710;9.622;2023-02-21T01:03:13;1.80;99.90
4643;DHT22;2334;48.710;9.622;2023-02-21T01:05:57;1.80;99.90
4643;DHT22;2334;48.710;9.622;2023-02-21T01:08:42;1.80;99.90
4643;DHT22;2334;48.710;9.622;2023-02-21T01:11:26;1.80;99.90
4643;DHT22;2334;48.710;9.622;2023-02-21T01:14:13;1.80;99.90
4643;DHT22;2334;48.710;9.622;2023-02-21T01:16:57;1.70;99.90
4643;DHT22;2334;48.710;9.622;2023-02-21T01:19:41;1.70;99.90
4643;DHT22;2334;48.710;9.622;2023-02-21T01:22:26;1.70;99.90
4643;DHT22;2334;48.710;9.622;2023-02-21T01:25:10;1.60;99.90
4643;DHT22;2334;48.710;9.622;2023-02-21T01:27:58;1.60;99.90
4643;DHT22;2334;48.710;9.622;2023-02-21T01:30:43;1.50;99.90
4643;DHT22;2334;48.710;9.622;2023-02-21T01:33:28;1.50;99.90
4643;DHT22;2334;48.710;9.622;2023-02-21T01:36:12;1.50;99.90
4643;DHT22;2334;48.710;9.622;2023-02-21T01:38:56;1.50;99.90
4643;DHT22;2334;48.710;9.622;2023-02-21T01:41:40;1.40;99.90
4643;DHT22;2334;48.710;9.622;2023-02-21T01:44:32;1.40;99.90
4643;DHT22;2334;48.710;9.622;2023-02-21T01:47:18;1.40;99.90
4643;DHT22;2334;48.710;9.622;2023-02-21T01:50:10;1.30;99.90
4643;DHT22;2334;48.710;9.622;2023-02-21T01:52:55;1.40;99.90
4643;DHT22;2334;48.710;9.622;2023-02-21T01:55:41;1.40;99.90
4643;DHT22;2334;48.710;9.622;2023-02-21T01:58:28;1.40;99.90
4643;DHT22;2334;48.710;9.622;2023-02-21T02:01:24;1.40;99.90
4643;DHT22;2334;48.710;9.622;2023-02-21T02:04:11;1.40;99.90
4643;DHT22;2334;48.710;9.622;2023-02-21T02:06:55;1.40;99.90
4643;DHT22;2334;48.710;9.622;2023-02-21T02:09:39;1.30;99.90
4643;DHT22;2334;48.710;9.622;2023-02-21T02:12:58;1.20;99.90
4643;DHT22;2334;48.710;9.622;2023-02-21T02:15:44;1.20;99.90
4643;DHT22;2334;48.710;9.622;2023-02-21T02:18:33;1.20;99.90
4643;DHT22;2334;48.710;9.622;2023-02-21T02:24:47;1.30;99.90
4643;DHT22;2334;48.710;9.622;2023-02-21T02:27:40;1.30;99.90
4643;DHT22;2334;48.710;9.622;2023-02-21T02:33:44;1.30;99.90
4643;DHT22;2334;48.710;9.622;2023-02-21T02:36:19;1.30;99.90
4643;DHT22;2334;48.710;9.622;2023-02-21T02:38:55;1.30;99.90
4643;DHT22;2334;48.710;9.622;2023-02-21T02:41:31;1.20;99.90
4643;DHT22;2334;48.710;9.622;2023-02-21T02:44:03;1.20;99.90
4643;DHT22;2334;48.710;9.622;2023-02-21T02:46:34;1.20;99.90
4643;DHT22;2334;48.710;9.622;2023-02-21T02:49:06;1.20;99.90
4643;DHT22;2334;48.710;9.622;2023-02-21T02:51:36;1.20;99.90
4643;DHT22;2334;48.710;9.622;2023-02-21T02:54:03;1.10;99.90
4643;DHT22;2334;48.710;9.622;2023-02-21T02:56:30;1.10;99.90
4643;DHT22;2334;48.710;9.622;2023-02-21T02:59:00;1.10;99.90
4643;DHT22;2334;48.710;9.622;2023-02-21T03:01:41;1.00;99.90
4643;DHT22;2334;48.710;9.622;2023-02-21T03:07:08;0.90;99.90
4643;DHT22;2334;48.710;9.622;2023-02-21T03:09:45;1.00;99.90
4643;DHT22;2334;48.710;9.622;2023-02-21T03:12:18;0.90;99.90
4643;DHT22;2334;48.710;9.622;2023-02-21T03:14:52;0.90;99.90
4643;DHT22;2334;48.710;9.622;2023-02-21T03:17:24;1.00;99.90
4643;DHT22;2334;48.710;9.622;2023-02-21T03:19:53;1.00;99.90
4643;DHT22;2334;48.710;9.622;2023-02-21T03:22:25;1.00;99.90
4643;DHT22;2334;48.710;9.622;2023-02-21T03:24:55;1.00;99.90
4643;DHT22;2334;48.710;9.622;2023-02-21T03:27:25;1.00;99.90
4643;DHT22;2334;48.710;9.622;2023-02-21T03:29:53;0.90;99.90
4643;DHT22;2334;48.710;9.622;2023-02-21T03:32:25;0.90;99.90
4643;DHT22;2334;48.710;9.622;2023-02-21T03:34:52;0.80;99.90
4643;DHT22;2334;48.710;9.622;2023-02-21T03:37:21;0.80;99.90
4643;DHT22;2334;48.710;9.622;2023-02-21T03:39:55;0.80;99.90
4643;DHT22;2334;48.710;9.622;2023-02-21T03:42:22;0.80;99.90
4643;DHT22;2334;48.710;9.622;2023-02-21T03:44:49;0.80;99.90
4643;DHT22;2334;48.710;9.622;2023-02-21T03:47:16;0.80;99.90
4643;DHT22;2334;48.710;9.622;2023-02-21T03:49:43;0.80;99.90
4643;DHT22;2334;48.710;9.622;2023-02-21T03:52:10;0.80;99.90
4643;DHT22;2334;48.710;9.622;2023-02-21T03:54:37;0.90;99.90
4643;DHT22;2334;48.710;9.622;2023-02-21T03:57:06;0.90;99.90
4643;DHT22;2334;48.710;9.622;2023-02-21T03:59:33;0.80;99.90
4643;DHT22;2334;48.710;9.622;2023-02-21T04:02:00;0.80;99.90
4643;DHT22;2334;48.710;9.622;2023-02-21T04:04:27;0.80;99.90
4643;DHT22;2334;48.710;9.622;2023-02-21T04:06:53;0.80;99.90
4643;DHT22;2334;48.710;9.622;2023-02-21T04:09:20;0.80;99.90
4643;DHT22;2334;48.710;9.622;2023-02-21T04:11:47;0.80;99.90
4643;DHT22;2334;48.710;9.622;2023-02-21T04:14:16;0.70;99.90
4643;DHT22;2334;48.710;9.622;2023-02-21T04:16:43;0.70;99.90
4643;DHT22;2334;48.710;9.622;2023-02-21T04:19:09;0.70;99.90
4643;DHT22;2334;48.710;9.622;2023-02-21T04:21:36;0.60;99.90
4643;DHT22;2334;48.710;9.622;2023-02-21T04:24:04;0.60;99.90
4643;DHT22;2334;48.710;9.622;2023-02-21T04:26:30;0.60;99.90
4643;DHT22;2334;48.710;9.622;2023-02-21T04:28:59;0.60;99.90
4643;DHT22;2334;48.710;9.622;2023-02-21T04:31:28;0.60;99.90
4643;DHT22;2334;48.710;9.622;2023-02-21T04:33:55;0.60;99.90
4643;DHT22;2334;48.710;9.622;2023-02-21T04:36:22;0.60;99.90
4643;DHT22;2334;48.710;9.622;2023-02-21T04:38:49;0.60;99.90
4643;DHT22;2334;48.710;9.622;2023-02-21T04:41:16;0.60;99.90
4643;DHT22;2334;48.710;9.622;2023-02-21T04:43:43;0.50;99.90
4643;DHT22;2334;48.710;9.622;2023-02-21T04:46:11;0.50;99.90
4643;DHT22;2334;48.710;9.622;2023-02-21T04:48:42;0.50;99.90
4643;DHT22;2334;48.710;9.622;2023-02-21T04:51:09;0.50;99.90
4643;DHT22;2334;48.710;9.622;2023-02-21T04:53:36;0.50;99.90
4643;DHT22;2334;48.710;9.622;2023-02-21T04:56:03;0.50;99.90
4643;DHT22;2334;48.710;9.622;2023-02-21T04:58:30;0.50;99.90
4643;DHT22;2334;48.710;9.622;2023-02-21T05:00:57;0.50;99.90
4643;DHT22;2334;48.710;9.622;2023-02-21T05:03:24;0.50;99.90
4643;DHT22;2334;48.710;9.622;2023-02-21T05:05:52;0.50;99.90
4643;DHT22;2334;48.710;9.622;2023-02-21T05:08:19;0.50;99.90
4643;DHT22;2334;48.710;9.622;2023-02-21T05:10:46;0.50;99.90
4643;DHT22;2334;48.710;9.622;2023-02-21T05:13:13;0.50;99.90
4643;DHT22;2334;48.710;9.622;2023-02-21T05:15:40;0.50;99.90
4643;DHT22;2334;48.710;9.622;2023-02-21T05:18:07;0.40;99.90
4643;DHT22;2334;48.710;9.622;2023-02-21T05:20:34;0.40;99.90
4643;DHT22;2334;48.710;9.622;2023-02-21T05:23:02;0.50;99.90
4643;DHT22;2334;48.710;9.622;2023-02-21T05:25:29;0.40;99.90
4643;DHT22;2334;48.710;9.622;2023-02-21T05:27:56;0.40;99.90
4643;DHT22;2334;48.710;9.622;2023-02-21T05:30:25;0.40;99.90
4643;DHT22;2334;48.710;9.622;2023-02-21T05:32:52;0.40;99.90
4643;DHT22;2334;48.710;9.622;2023-02-21T05:35:19;0.40;99.90
4643;DHT22;2334;48.710;9.622;2023-02-21T05:37:46;0.50;99.90
4643;DHT22;2334;48.710;9.622;2023-02-21T05:40:15;0.40;99.90
4643;DHT22;2334;48.710;9.622;2023-02-21T05:42:42;0.40;99.90
4643;DHT22;2334;48.710;9.622;2023-02-21T05:45:09;0.30;99.90
4643;DHT22;2334;48.710;9.622;2023-02-21T05:47:37;0.40;99.90
4643;DHT22;2334;48.710;9.622;2023-02-21T05:50:05;0.40;99.90
4643;DHT22;2334;48.710;9.622;2023-02-21T05:52:31;0.40;99.90
4643;DHT22;2334;48.710;9.622;2023-02-21T05:54:58;0.40;99.90
4643;DHT22;2334;48.710;9.622;2023-02-21T05:57:27;0.40;99.90
4643;DHT22;2334;48.710;9.622;2023-02-21T05:59:53;0.40;99.90
4643;DHT22;2334;48.710;9.622;2023-02-21T06:02:20;0.50;99.90
4643;DHT22;2334;48.710;9.622;2023-02-21T06:04:47;0.40;99.90
4643;DHT22;2334;48.710;9.622;2023-02-21T06:07:14;0.40;99.90
4643;DHT22;2334;48.710;9.622;2023-02-21T06:09:43;0.40;99.90
4643;DHT22;2334;48.710;9.622;2023-02-21T06:12:10;0.40;99.90
4643;DHT22;2334;48.710;9.622;2023-02-21T06:14:38;0.40;99.90
4643;DHT22;2334;48.710;9.622;2023-02-21T06:17:05;0.40;99.90
4643;DHT22;2334;48.710;9.622;2023-02-21T06:19:32;0.40;99.90
4643;DHT22;2334;48.710;9.622;2023-02-21T06:21:58;0.40;99.90
4643;DHT22;2334;48.710;9.622;2023-02-21T06:24:25;0.40;99.90
4643;DHT22;2334;48.710;9.622;2023-02-21T06:26:52;0.40;99.90
4643;DHT22;2334;48.710;9.622;2023-02-21T06:29:19;0.40;99.90
4643;DHT22;2334;48.710;9.622;2023-02-21T06:31:47;0.40;99.90
4643;DHT22;2334;48.710;9.622;2023-02-21T06:34:14;0.40;99.90
4643;DHT22;2334;48.710;9.622;2023-02-21T06:36:41;0.40;99.90
4643;DHT22;2334;48.710;9.622;2023-02-21T06:39:10;0.50;99.90
4643;DHT22;2334;48.710;9.622;2023-02-21T06:41:37;0.50;99.90
4643;DHT22;2334;48.710;9.622;2023-02-21T06:44:04;0.40;99.90
4643;DHT22;2334;48.710;9.622;2023-02-21T06:46:31;0.40;99.90
4643;DHT22;2334;48.710;9.622;2023-02-21T06:49:02;0.30;99.90
4643;DHT22;2334;48.710;9.622;2023-02-21T06:51:33;0.30;99.90
4643;DHT22;2334;48.710;9.622;2023-02-21T06:54:00;0.30;99.90
4643;DHT22;2334;48.710;9.622;2023-02-21T06:56:27;0.30;99.90
4643;DHT22;2334;48.710;9.622;2023-02-21T06:58:54;0.30;99.90
4643;DHT22;2334;48.710;9.622;2023-02-21T07:01:21;0.30;99.90
4643;DHT22;2334;48.710;9.622;2023-02-21T07:03:48;0.30;99.90
4643;DHT22;2334;48.710;9.622;2023-02-21T07:06:16;0.40;99.90
4643;DHT22;2334;48.710;9.622;2023-02-21T07:08:43;0.50;99.90
4643;DHT22;2334;48.710;9.622;2023-02-21T07:11:10;0.60;99.90
4643;DHT22;2334;48.710;9.622;2023-02-21T07:13:38;0.60;99.90
4643;DHT22;2334;48.710;9.622;2023-02-21T07:16:05;0.70;99.90
4643;DHT22;2334;48.710;9.622;2023-02-21T07:18:32;0.70;99.90
4643;DHT22;2334;48.710;9.622;2023-02-21T07:20:59;0.80;99.90
4643;DHT22;2334;48.710;9.622;2023-02-21T07:23:28;0.80;99.90
4643;DHT22;2334;48.710;9.622;2023-02-21T07:25:55;0.90;99.90
4643;DHT22;2334;48.710;9.622;2023-02-21T07:28:22;0.90;99.90
4643;DHT22;2334;48.710;9.622;2023-02-21T07:30:49;1.10;99.90
4643;DHT22;2334;48.710;9.622;2023-02-21T07:33:16;1.10;99.90
4643;DHT22;2334;48.710;9.622;2023-02-21T07:35:43;1.20;99.90
4643;DHT22;2334;48.710;9.622;2023-02-21T07:38:18;1.30;99.90
4643;DHT22;2334;48.710;9.622;2023-02-21T07:40:47;1.40;99.90
4643;DHT22;2334;48.710;9.622;2023-02-21T07:43:13;1.50;99.90
4643;DHT22;2334;48.710;9.622;2023-02-21T07:45:40;1.70;99.90
4643;DHT22;2334;48.710;9.622;2023-02-21T07:48:07;1.80;99.90
4643;DHT22;2334;48.710;9.622;2023-02-21T07:50:34;1.90;99.90
4643;DHT22;2334;48.710;9.622;2023-02-21T07:53:01;2.00;99.90
4643;DHT22;2334;48.710;9.622;2023-02-21T07:55:28;2.10;99.90
4643;DHT22;2334;48.710;9.622;2023-02-21T07:57:56;2.20;99.90
4643;DHT22;2334;48.710;9.622;2023-02-21T08:00:23;2.40;99.90
4643;DHT22;2334;48.710;9.622;2023-02-21T08:02:50;2.60;99.90
4643;DHT22;2334;48.710;9.622;2023-02-21T08:05:18;2.70;99.90
4643;DHT22;2334;48.710;9.622;2023-02-21T08:07:46;2.90;99.90
4643;DHT22;2334;48.710;9.622;2023-02-21T08:10:18;3.00;99.90
4643;DHT22;2334;48.710;9.622;2023-02-21T08:12:45;3.00;99.90
4643;DHT22;2334;48.710;9.622;2023-02-21T08:15:21;3.10;99.90
4643;DHT22;2334;48.710;9.622;2023-02-21T08:17:49;3.20;99.90
4643;DHT22;2334;48.710;9.622;2023-02-21T08:20:16;3.40;99.90
4643;DHT22;2334;48.710;9.622;2023-02-21T08:22:43;3.50;99.90
4643;DHT22;2334;48.710;9.622;2023-02-21T08:25:11;3.60;99.90
4643;DHT22;2334;48.710;9.622;2023-02-21T08:27:38;3.70;99.90
4643;DHT22;2334;48.710;9.622;2023-02-21T08:30:06;3.90;99.90
4643;DHT22;2334;48.710;9.622;2023-02-21T08:32:35;4.10;99.90
4643;DHT22;2334;48.710;9.622;2023-02-21T08:35:03;4.30;99.90
4643;DHT22;2334;48.710;9.622;2023-02-21T08:37:31;4.60;99.90
4643;DHT22;2334;48.710;9.622;2023-02-21T08:40:01;4.80;99.90
4643;DHT22;2334;48.710;9.622;2023-02-21T08:42:28;5.10;99.90
4643;DHT22;2334;48.710;9.622;2023-02-21T08:44:55;5.30;99.90
4643;DHT22;2334;48.710;9.622;2023-02-21T08:47:22;5.30;99.90
4643;DHT22;2334;48.710;9.622;2023-02-21T08:49:51;5.40;99.90
4643;DHT22;2334;48.710;9.622;2023-02-21T08:52:18;5.60;99.90
4643;DHT22;2334;48.710;9.622;2023-02-21T08:54:47;5.70;99.90
4643;DHT22;2334;48.710;9.622;2023-02-21T08:57:14;6.00;99.90
4643;DHT22;2334;48.710;9.622;2023-02-21T08:59:41;6.00;99.90
4643;DHT22;2334;48.710;9.622;2023-02-21T09:02:14;6.20;99.90
4643;DHT22;2334;48.710;9.622;2023-02-21T09:04:41;6.50;99.90
4643;DHT22;2334;48.710;9.622;2023-02-21T09:07:11;6.70;99.90
4643;DHT22;2334;48.710;9.622;2023-02-21T09:09:38;6.80;99.90
4643;DHT22;2334;48.710;9.622;2023-02-21T09:12:05;7.00;99.90
4643;DHT22;2334;48.710;9.622;2023-02-21T09:14:33;7.30;99.90
4643;DHT22;2334;48.710;9.622;2023-02-21T09:17:01;7.50;99.90
4643;DHT22;2334;48.710;9.622;2023-02-21T09:19:28;7.70;99.90
4643;DHT22;2334;48.710;9.622;2023-02-21T09:21:55;8.00;99.90
4643;DHT22;2334;48.710;9.622;2023-02-21T09:24:24;8.00;99.90
4643;DHT22;2334;48.710;9.622;2023-02-21T09:26:51;8.10;99.90
4643;DHT22;2334;48.710;9.622;2023-02-21T09:29:20;8.40;99.90
4643;DHT22;2334;48.710;9.622;2023-02-21T09:31:47;8.60;99.90
4643;DHT22;2334;48.710;9.622;2023-02-21T09:34:15;8.60;99.90
4643;DHT22;2334;48.710;9.622;2023-02-21T09:36:42;8.70;99.90
4643;DHT22;2334;48.710;9.622;2023-02-21T09:39:09;9.00;99.90
4643;DHT22;2334;48.710;9.622;2023-02-21T09:41:39;9.00;99.90
4643;DHT22;2334;48.710;9.622;2023-02-21T09:44:11;9.10;99.90
4643;DHT22;2334;48.710;9.622;2023-02-21T09:46:42;9.00;99.90
4643;DHT22;2334;48.710;9.622;2023-02-21T09:49:13;9.20;99.90
4643;DHT22;2334;48.710;9.622;2023-02-21T09:51:43;9.30;99.90
4643;DHT22;2334;48.710;9.622;2023-02-21T09:54:16;9.30;99.90
4643;DHT22;2334;48.710;9.622;2023-02-21T09:56:46;9.40;99.90
4643;DHT22;2334;48.710;9.622;2023-02-21T09:59:14;9.70;99.90
4643;DHT22;2334;48.710;9.622;2023-02-21T10:01:54;9.90;99.90
4643;DHT22;2334;48.710;9.622;2023-02-21T10:04:28;9.90;99.90
4643;DHT22;2334;48.710;9.622;2023-02-21T10:06:59;10.20;99.90
4643;DHT22;2334;48.710;9.622;2023-02-21T10:09:37;10.50;99.90
4643;DHT22;2334;48.710;9.622;2023-02-21T10:12:14;10.70;99.90
4643;DHT22;2334;48.710;9.622;2023-02-21T10:15:00;10.60;99.90
4643;DHT22;2334;48.710;9.622;2023-02-21T10:17:33;10.60;99.90
4643;DHT22;2334;48.710;9.622;2023-02-21T10:20:03;10.90;99.90
4643;DHT22;2334;48.710;9.622;2023-02-21T10:22:37;10.80;99.90
4643;DHT22;2334;48.710;9.622;2023-02-21T10:25:19;11.20;99.90
4643;DHT22;2334;48.710;9.622;2023-02-21T10:27:48;11.20;99.90
4643;DHT22;2334;48.710;9.622;2023-02-21T10:30:23;11.40;99.90
4643;DHT22;2334;48.710;9.622;2023-02-21T10:32:51;11.50;99.90
4643;DHT22;2334;48.710;9.622;2023-02-21T10:35:18;11.80;99.90
4643;DHT22;2334;48.710;9.622;2023-02-21T10:37:47;12.10;99.90
4643;DHT22;2334;48.710;9.622;2023-02-21T10:40:26;12.50;99.90
4643;DHT22;2334;48.710;9.622;2023-02-21T10:43:00;12.80;99.90
4643;DHT22;2334;48.710;9.622;2023-02-21T10:45:33;12.70;99.90
4643;DHT22;2334;48.710;9.622;2023-02-21T10:48:03;12.50;99.90
4643;DHT22;2334;48.710;9.622;2023-02-21T10:50:42;12.70;99.90
4643;DHT22;2334;48.710;9.622;2023-02-21T10:53:23;13.00;99.90
4643;DHT22;2334;48.710;9.622;2023-02-21T10:56:08;13.00;99.90
4643;DHT22;2334;48.710;9.622;2023-02-21T10:58:44;13.00;99.90
4643;DHT22;2334;48.710;9.622;2023-02-21T11:01:13;13.20;99.90
4643;DHT22;2334;48.710;9.622;2023-02-21T11:03:45;13.60;99.90
4643;DHT22;2334;48.710;9.622;2023-02-21T11:06:25;13.80;99.90
4643;DHT22;2334;48.710;9.622;2023-02-21T11:08:53;14.10;99.90
4643;DHT22;2334;48.710;9.622;2023-02-21T11:11:34;13.90;99.90
4643;DHT22;2334;48.710;9.622;2023-02-21T11:14:21;14.10;99.90
4643;DHT22;2334;48.710;9.622;2023-02-21T11:17:16;14.30;99.90
4643;DHT22;2334;48.710;9.622;2023-02-21T11:19:46;14.80;99.90
4643;DHT22;2334;48.710;9.622;2023-02-21T11:22:14;14.80;99.90
4643;DHT22;2334;48.710;9.622;2023-02-21T11:24:56;14.80;99.90
4643;DHT22;2334;48.710;9.622;2023-02-21T11:27:24;15.00;99.90
4643;DHT22;2334;48.710;9.622;2023-02-21T11:29:54;14.70;99.90
4643;DHT22;2334;48.710;9.622;2023-02-21T11:32:27;14.90;99.90
4643;DHT22;2334;48.710;9.622;2023-02-21T11:35:08;14.80;99.90
4643;DHT22;2334;48.710;9.622;2023-02-21T11:37:50;14.70;99.90
4643;DHT22;2334;48.710;9.622;2023-02-21T11:40:23;14.90;99.90
4643;DHT22;2334;48.710;9.622;2023-02-21T11:42:50;15.00;99.90
4643;DHT22;2334;48.710;9.622;2023-02-21T11:45:26;14.80;99.90
4643;DHT22;2334;48.710;9.622;2023-02-21T11:47:58;14.90;99.90
4643;DHT22;2334;48.710;9.622;2023-02-21T11:50:29;15.10;99.90
4643;DHT22;2334;48.710;9.622;2023-02-21T11:53:03;15.50;99.90
4643;DHT22;2334;48.710;9.622;2023-02-21T11:55:32;15.70;99.90
4643;DHT22;2334;48.710;9.622;2023-02-21T11:58:14;15.70;99.90
4643;DHT22;2334;48.710;9.622;2023-02-21T12:00:48;15.60;99.90
4643;DHT22;2334;48.710;9.622;2023-02-21T12:03:58;15.40;99.90
4643;DHT22;2334;48.710;9.622;2023-02-21T12:06:34;15.60;99.90
4643;DHT22;2334;48.710;9.622;2023-02-21T12:09:06;15.90;99.90
4643;DHT22;2334;48.710;9.622;2023-02-21T12:11:51;16.00;99.90
4643;DHT22;2334;48.710;9.622;2023-02-21T12:14:34;16.00;99.90
4643;DHT22;2334;48.710;9.622;2023-02-21T12:17:13;16.30;99.90
4643;DHT22;2334;48.710;9.622;2023-02-21T12:19:57;16.40;99.90
4643;DHT22;2334;48.710;9.622;2023-02-21T12:22:40;16.30;99.90
4643;DHT22;2334;48.710;9.622;2023-02-21T12:25:19;16.10;99.90
4643;DHT22;2334;48.710;9.622;2023-02-21T12:27:53;16.10;99.90
4643;DHT22;2334;48.710;9.622;2023-02-21T12:30:30;16.20;99.90
4643;DHT22;2334;48.710;9.622;2023-02-21T12:33:10;16.10;99.90
4643;DHT22;2334;48.710;9.622;2023-02-21T12:38:53;15.80;99.90
4643;DHT22;2334;48.710;9.622;2023-02-21T12:41:37;16.00;99.90
4643;DHT22;2334;48.710;9.622;2023-02-21T12:44:12;15.60;99.90
4643;DHT22;2334;48.710;9.622;2023-02-21T12:46:44;15.70;99.90
4643;DHT22;2334;48.710;9.622;2023-02-21T12:49:18;15.60;99.90
4643;DHT22;2334;48.710;9.622;2023-02-21T12:51:51;15.80;99.90
4643;DHT22;2334;48.710;9.622;2023-02-21T12:54:22;15.60;99.90
4643;DHT22;2334;48.710;9.622;2023-02-21T12:56:53;15.40;99.90
4643;DHT22;2334;48.710;9.622;2023-02-21T12:59:24;15.40;99.90
4643;DHT22;2334;48.710;9.622;2023-02-21T13:01:57;15.20;99.90
4643;DHT22;2334;48.710;9.622;2023-02-21T13:04:36;15.30;99.90
4643;DHT22;2334;48.710;9.622;2023-02-21T13:07:10;15.30;99.90
4643;DHT22;2334;48.710;9.622;2023-02-21T13:09:55;15.20;99.90
4643;DHT22;2334;48.710;9.622;2023-02-21T13:12:28;15.40;99.90
4643;DHT22;2334;48.710;9.622;2023-02-21T13:14:59;15.50;99.90
4643;DHT22;2334;48.710;9.622;2023-02-21T13:17:28;15.30;99.90
4643;DHT22;2334;48.710;9.622;2023-02-21T13:20:01;15.30;99.90
4643;DHT22;2334;48.710;9.622;2023-02-21T13:26:06;15.30;99.90
4643;DHT22;2334;48.710;9.622;2023-02-21T13:28:36;15.30;99.90
4643;DHT22;2334;48.710;9.622;2023-02-21T13:31:05;15.50;99.90
4643;DHT22;2334;48.710;9.622;2023-02-21T13:33:37;15.50;99.90
4643;DHT22;2334;48.710;9.622;2023-02-21T13:36:21;15.50;99.90
4643;DHT22;2334;48.710;9.622;2023-02-21T13:39:02;15.60;99.90
4643;DHT22;2334;48.710;9.622;2023-02-21T13:41:33;15.60;99.90
4643;DHT22;2334;48.710;9.622;2023-02-21T13:44:05;15.60;99.90
4643;DHT22;2334;48.710;9.622;2023-02-21T13:49:46;15.80;99.90
4643;DHT22;2334;48.710;9.622;2023-02-21T13:52:50;15.90;99.90
4643;DHT22;2334;48.710;9.622;2023-02-21T13:55:27;15.90;99.90
4643;DHT22;2334;48.710;9.622;2023-02-21T13:58:30;16.00;99.90
4643;DHT22;2334;48.710;9.622;2023-02-21T14:01:14;16.10;99.90
4643;DHT22;2334;48.710;9.622;2023-02-21T14:03:42;16.20;99.90
4643;DHT22;2334;48.710;9.622;2023-02-21T14:06:29;16.10;99.90
4643;DHT22;2334;48.710;9.622;2023-02-21T14:08:59;16.10;99.90
4643;DHT22;2334;48.710;9.622;2023-02-21T14:11:33;16.20;99.90
4643;DHT22;2334;48.710;9.622;2023-02-21T14:14:03;16.40;99.90
4643;DHT22;2334;48.710;9.622;2023-02-21T14:16:32;16.60;99.90
4643;DHT22;2334;48.710;9.622;2023-02-21T14:19:01;16.50;99.90
4643;DHT22;2334;48.710;9.622;2023-02-21T14:21:34;16.50;99.90
4643;DHT22;2334;48.710;9.622;2023-02-21T14:24:15;16.50;99.90
4643;DHT22;2334;48.710;9.622;2023-02-21T14:26:44;16.50;99.90
4643;DHT22;2334;48.710;9.622;2023-02-21T14:29:16;16.60;99.90
4643;DHT22;2334;48.710;9.622;2023-02-21T14:31:54;16.40;99.90
4643;DHT22;2334;48.710;9.622;2023-02-21T14:34:27;16.40;99.90
4643;DHT22;2334;48.710;9.622;2023-02-21T14:36:58;16.40;99.90
4643;DHT22;2334;48.710;9.622;2023-02-21T14:39:34;16.50;99.90
4643;DHT22;2334;48.710;9.622;2023-02-21T14:42:26;16.40;99.90
4643;DHT22;2334;48.710;9.622;2023-02-21T14:48:18;16.40;99.90
4643;DHT22;2334;48.710;9.622;2023-02-21T14:57:21;16.70;99.90
4643;DHT22;2334;48.710;9.622;2023-02-21T15:00:06;16.70;99.90
4643;DHT22;2334;48.710;9.622;2023-02-21T15:02:40;16.60;99.90
4643;DHT22;2334;48.710;9.622;2023-02-21T15:05:15;16.30;99.90
4643;DHT22;2334;48.710;9.622;2023-02-21T15:07:52;16.30;99.90
4643;DHT22;2334;48.710;9.622;2023-02-21T15:10:23;16.30;99.90
4643;DHT22;2334;48.710;9.622;2023-02-21T15:12:55;16.10;99.90
4643;DHT22;2334;48.710;9.622;2023-02-21T15:15:24;16.10;99.90
4643;DHT22;2334;48.710;9.622;2023-02-21T15:17:58;16.10;99.90
4643;DHT22;2334;48.710;9.622;2023-02-21T15:20:27;16.00;99.90
4643;DHT22;2334;48.710;9.622;2023-02-21T15:22:56;16.00;99.90
4643;DHT22;2334;48.710;9.622;2023-02-21T15:25:25;16.00;99.90
4643;DHT22;2334;48.710;9.622;2023-02-21T15:28:02;15.90;99.90
4643;DHT22;2334;48.710;9.622;2023-02-21T15:30:37;15.80;99.90
4643;DHT22;2334;48.710;9.622;2023-02-21T15:33:10;15.80;99.90
4643;DHT22;2334;48.710;9.622;2023-02-21T15:35:43;15.70;99.90
4643;DHT22;2334;48.710;9.622;2023-02-21T15:38:15;15.60;99.90
4643;DHT22;2334;48.710;9.622;2023-02-21T15:40:43;15.50;99.90
4643;DHT22;2334;48.710;9.622;2023-02-21T15:43:22;15.40;99.90
4643;DHT22;2334;48.710;9.622;2023-02-21T15:45:51;15.30;99.90
4643;DHT22;2334;48.710;9.622;2023-02-21T15:48:19;15.20;99.90
4643;DHT22;2334;48.710;9.622;2023-02-21T15:50:46;15.10;99.90
4643;DHT22;2334;48.710;9.622;2023-02-21T15:53:16;15.00;99.90
4643;DHT22;2334;48.710;9.622;2023-02-21T15:55:45;14.90;99.90
4643;DHT22;2334;48.710;9.622;2023-02-21T15:58:18;14.80;99.90
4643;DHT22;2334;48.710;9.622;2023-02-21T16:00:47;14.70;99.90
4643;DHT22;2334;48.710;9.622;2023-02-21T16:03:35;14.60;99.90
4643;DHT22;2334;48.710;9.622;2023-02-21T16:06:16;14.50;99.90
4643;DHT22;2334;48.710;9.622;2023-02-21T16:08:53;14.40;99.90
4643;DHT22;2334;48.710;9.622;2023-02-21T16:11:25;14.30;99.90
4643;DHT22;2334;48.710;9.622;2023-02-21T16:13:54;14.20;99.90
4643;DHT22;2334;48.710;9.622;2023-02-21T16:16:21;14.10;99.90
4643;DHT22;2334;48.710;9.622;2023-02-21T16:18:54;14.00;99.90
4643;DHT22;2334;48.710;9.622;2023-02-21T16:21:24;13.90;99.90
4643;DHT22;2334;48.710;9.622;2023-02-21T16:23:52;13.90;99.90
4643;DHT22;2334;48.710;9.622;2023-02-21T16:26:21;13.70;99.90
4643;DHT22;2334;48.710;9.622;2023-02-21T16:28:54;13.60;99.90
4643;DHT22;2334;48.710;9.622;2023-02-21T16:31:25;13.50;99.90
4643;DHT22;2334;48.710;9.622;2023-02-21T16:33:53;13.40;99.90
4643;DHT22;2334;48.710;9.622;2023-02-21T16:36:23;13.20;99.90
4643;DHT22;2334;48.710;9.622;2023-02-21T16:38:52;13.10;99.90
4643;DHT22;2334;48.710;9.622;2023-02-21T16:41:19;12.90;99.90
4643;DHT22;2334;48.710;9.622;2023-02-21T16:43:46;12.80;99.90
4643;DHT22;2334;48.710;9.622;2023-02-21T16:46:15;12.60;99.90
4643;DHT22;2334;48.710;9.622;2023-02-21T16:48:42;12.40;99.90
4643;DHT22;2334;48.710;9.622;2023-02-21T16:51:11;12.20;99.90
4643;DHT22;2334;48.710;9.622;2023-02-21T16:53:39;12.00;99.90
4643;DHT22;2334;48.710;9.622;2023-02-21T16:56:07;11.90;99.90
4643;DHT22;2334;48.710;9.622;2023-02-21T16:58:35;11.70;99.90
4643;DHT22;2334;48.710;9.622;2023-02-21T17:01:07;11.60;99.90
4643;DHT22;2334;48.710;9.622;2023-02-21T17:03:35;11.40;99.90
4643;DHT22;2334;48.710;9.622;2023-02-21T17:06:03;11.30;99.90
4643;DHT22;2334;48.710;9.622;2023-02-21T17:08:30;11.10;99.90
4643;DHT22;2334;48.710;9.622;2023-02-21T17:10:57;11.00;99.90
4643;DHT22;2334;48.710;9.622;2023-02-21T17:13:25;10.90;99.90
4643;DHT22;2334;48.710;9.622;2023-02-21T17:15:51;10.80;99.90
4643;DHT22;2334;48.710;9.622;2023-02-21T17:18:18;10.80;99.90